Time;durP1;ratioP1;P1;durP2;ratioP2;P2;SDS_P1;SDS_P2;PMS_P1;PMS_P2;Temp;Humidity;BMP_temperature;BMP_pressure;BME280_temperature;BME280_humidity;BME280_pressure;Samples;Min_cycle;Max_cycle;Signal;HPM_P1;HPM_P2
2021/06/04 00:01:38;;;;;;;3.03;2.42;;;;;;;21.81;38.20;96012.34;4997865;28;20562;-88
2021/06/04 00:04:08;;;;;;;3.22;2.80;;;;;;;21.79;37.90;96017.03;4997857;28;20211;-86
2021/06/04 00:06:34;;;;;;;3.53;2.33;;;;;;;21.73;39.11;96018.00;4997598;28;20224;-83
2021/06/04 00:09:00;;;;;;;3.15;2.50;;;;;;;21.72;39.18;96021.63;4997684;28;20223;-85
2021/06/04 00:11:30;;;;;;;3.92;2.85;;;;;;;21.63;39.13;96021.22;4996389;28;20203;-87
2021/06/04 00:13:58;;;;;;;3.15;2.85;;;;;;;21.59;39.07;96020.06;4996954;28;20261;-84
2021/06/04 00:16:29;;;;;;;3.38;2.75;;;;;;;21.57;38.97;96022.13;4997079;28;20223;-84
2021/06/04 00:18:59;;;;;;;2.70;2.50;;;;;;;21.54;39.09;96024.44;4997452;28;20220;-86
2021/06/04 00:21:29;;;;;;;3.30;2.72;;;;;;;21.50;39.04;96023.31;4996206;28;20250;-84
2021/06/04 00:23:55;;;;;;;2.92;2.72;;;;;;;21.43;39.79;96033.13;4996761;28;20212;-87
2021/06/04 00:26:22;;;;;;;3.00;2.80;;;;;;;21.47;39.01;96034.25;4996541;28;20220;-86
2021/06/04 00:28:48;;;;;;;3.03;2.55;;;;;;;21.45;39.27;96031.88;4997129;28;20199;-85
2021/06/04 00:31:14;;;;;;;2.80;2.60;;;;;;;21.43;39.04;96033.94;4996492;28;20192;-84
2021/06/04 00:33:42;;;;;;;2.88;2.58;;;;;;;21.40;39.40;96030.97;4995947;28;20230;-84
2021/06/04 00:36:11;;;;;;;3.47;2.70;;;;;;;21.41;40.22;96032.56;4996091;28;20227;-85
2021/06/04 00:38:37;;;;;;;4.65;2.65;;;;;;;21.31;39.98;96027.94;4995524;28;20219;-86
2021/06/04 00:41:07;;;;;;;2.90;2.58;;;;;;;21.26;40.23;96027.84;4996287;28;20214;-85
2021/06/04 00:43:33;;;;;;;3.67;2.60;;;;;;;21.14;41.23;96030.47;4996964;28;20206;-84
2021/06/04 00:46:00;;;;;;;3.28;2.55;;;;;;;21.09;41.91;96032.19;4996875;28;20247;-83
2021/06/04 00:48:27;;;;;;;3.13;2.72;;;;;;;21.03;42.30;96031.28;4996407;28;20721;-85
2021/06/04 00:50:59;;;;;;;2.70;2.50;;;;;;;21.02;42.74;96038.34;4996053;28;20246;-84
2021/06/04 00:53:28;;;;;;;2.78;2.58;;;;;;;20.95;43.16;96027.22;4995744;28;20196;-83
2021/06/04 00:55:55;;;;;;;2.40;2.20;;;;;;;20.81;43.86;96025.03;4996212;28;20235;-86
2021/06/04 00:58:25;;;;;;;3.08;2.75;;;;;;;20.73;44.14;96028.81;4995865;28;20274;-84
2021/06/04 01:00:53;;;;;;;2.63;2.42;;;;;;;20.67;44.06;96027.13;4995103;28;20203;-84
2021/06/04 01:03:23;;;;;;;2.58;2.38;;;;;;;20.56;45.15;96033.97;4995784;28;20365;-84
2021/06/04 01:05:50;;;;;;;3.25;2.60;;;;;;;20.48;45.56;96033.50;4995900;28;20219;-87
2021/06/04 01:08:36;;;;;;;2.88;2.58;;;;;;;20.45;45.51;96041.78;4995791;28;20199;-86
2021/06/04 01:11:11;;;;;;;2.97;2.42;;;;;;;20.45;45.32;96042.59;4996274;28;20609;-85
2021/06/04 01:13:51;;;;;;;2.80;2.50;;;;;;;20.33;45.27;96039.13;4995287;28;20663;-84
2021/06/04 01:16:26;;;;;;;2.60;2.40;;;;;;;20.21;45.94;96048.78;4996604;28;20227;-83
2021/06/04 01:19:04;;;;;;;2.80;2.60;;;;;;;20.21;45.28;96056.63;4996414;28;20234;-85
2021/06/04 01:21:39;;;;;;;2.85;2.58;;;;;;;20.03;46.09;96054.88;4993716;28;20725;-85
2021/06/04 01:24:17;;;;;;;2.80;2.60;;;;;;;19.86;46.75;96059.16;4992564;28;20199;-84
2021/06/04 01:26:49;;;;;;;2.50;2.30;;;;;;;19.72;46.87;96055.94;4994615;28;20227;-84
2021/06/04 01:29:18;;;;;;;2.70;2.50;;;;;;;19.51;47.98;96061.63;4995486;28;20262;-84
2021/06/04 01:31:49;;;;;;;2.50;2.30;;;;;;;19.45;47.86;96054.63;4995290;28;20191;-85
2021/06/04 01:34:19;;;;;;;6.22;3.00;;;;;;;19.31;48.64;96062.66;4995544;28;20317;-86
2021/06/04 01:36:49;;;;;;;2.78;2.58;;;;;;;19.16;48.92;96051.78;4996443;28;20219;-84
2021/06/04 01:39:19;;;;;;;3.63;2.65;;;;;;;19.03;49.31;96054.56;4996964;28;20223;-86
2021/06/04 01:41:49;;;;;;;4.00;2.67;;;;;;;19.14;48.70;96061.66;4997515;28;20196;-87
2021/06/04 01:44:23;;;;;;;5.60;2.92;;;;;;;19.24;49.62;96054.09;4997278;28;20371;-86
2021/06/04 01:46:56;;;;;;;2.92;2.63;;;;;;;19.38;49.38;96059.16;4995460;28;20223;-85
2021/06/04 01:49:24;;;;;;;3.40;2.75;;;;;;;19.42;48.64;96055.09;4995562;28;20195;-84
2021/06/04 01:51:54;;;;;;;2.55;2.35;;;;;;;19.36;48.67;96054.16;4986930;28;20204;-84
2021/06/04 01:54:25;;;;;;;2.97;2.78;;;;;;;19.37;49.10;96054.97;4996109;28;20265;-85
2021/06/04 01:56:57;;;;;;;3.38;2.72;;;;;;;19.31;49.39;96048.78;4976097;28;20228;-87
2021/06/04 01:59:27;;;;;;;3.15;2.50;;;;;;;19.33;49.93;96049.38;4990513;28;20317;-87
2021/06/04 02:01:54;;;;;;;3.20;2.90;;;;;;;19.33;50.08;96049.38;4995996;28;20548;-85
2021/06/04 02:04:24;;;;;;;4.05;2.75;;;;;;;19.39;49.70;96051.13;4996088;28;20211;-85
2021/06/04 02:06:51;;;;;;;3.15;2.95;;;;;;;19.39;48.90;96051.13;4995016;28;20719;-85
2021/06/04 02:09:20;;;;;;;3.53;3.00;;;;;;;19.41;49.36;96050.91;4996098;28;20195;-88
2021/06/04 02:11:48;;;;;;;3.60;2.75;;;;;;;19.34;49.75;96050.97;4994300;28;20691;-88
2021/06/04 02:14:19;;;;;;;3.30;3.00;;;;;;;19.34;49.84;96056.19;4994821;28;20207;-87
2021/06/04 02:17:04;;;;;;;3.15;2.78;;;;;;;19.42;49.42;96061.13;4994626;28;20219;-86
2021/06/04 02:19:44;;;;;;;3.08;2.80;;;;;;;19.31;50.27;96062.66;4992298;28;20238;-88
2021/06/04 02:22:17;;;;;;;2.85;2.60;;;;;;;19.24;49.83;96054.09;4994657;28;20269;-88
2021/06/04 02:24:48;;;;;;;3.05;2.75;;;;;;;19.25;49.80;96057.50;4995364;28;20199;-87
2021/06/04 02:27:21;;;;;;;3.17;2.88;;;;;;;19.12;51.08;96055.84;4995411;28;20595;-88
2021/06/04 02:29:54;;;;;;;3.28;2.90;;;;;;;18.91;51.44;96049.25;4995538;28;20214;-87
2021/06/04 02:32:23;;;;;;;3.00;2.80;;;;;;;18.92;51.11;96052.66;4994204;28;20342;-86
2021/06/04 02:34:53;;;;;;;3.42;3.13;;;;;;;18.91;52.13;96054.47;4995910;28;20267;-88
2021/06/04 02:37:23;;;;;;;3.72;3.30;;;;;;;18.88;51.09;96054.09;4995326;28;20603;-88
2021/06/04 02:39:56;;;;;;;4.05;3.20;;;;;;;18.89;51.01;96047.84;4995310;28;20287;-88
2021/06/04 02:42:26;;;;;;;3.67;3.38;;;;;;;19.04;50.19;96047.53;4995688;28;20218;-88
2021/06/04 02:44:58;;;;;;;3.30;3.00;;;;;;;19.13;49.76;96054.03;4995439;28;20195;-88
2021/06/04 02:47:30;;;;;;;4.18;3.28;;;;;;;19.19;49.68;96047.94;4996404;28;20768;-88
2021/06/04 02:49:56;;;;;;;3.78;3.30;;;;;;;19.20;50.07;96045.13;4996333;28;20206;-87
2021/06/04 02:52:31;;;;;;;3.58;2.90;;;;;;;19.13;50.19;96043.59;4994991;28;20202;-88
2021/06/04 02:54:59;;;;;;;3.95;3.55;;;;;;;19.06;50.21;96040.25;4994900;28;20205;-88
2021/06/04 02:57:28;;;;;;;5.22;3.60;;;;;;;19.04;49.97;96043.09;4995159;28;20246;-88
2021/06/04 02:59:56;;;;;;;3.65;3.35;;;;;;;19.12;50.27;96044.59;4994801;28;20207;-88
2021/06/04 03:02:25;;;;;;;5.05;3.20;;;;;;;19.18;50.11;96043.75;4995647;28;20199;-88
2021/06/04 03:04:54;;;;;;;3.58;3.28;;;;;;;19.26;49.49;96046.84;4993103;28;20206;-87
2021/06/04 03:07:25;;;;;;;3.22;2.97;;;;;;;19.30;49.20;96047.19;4995135;28;20796;-87
2021/06/04 03:09:52;;;;;;;4.07;3.20;;;;;;;19.35;49.70;96047.34;4995981;28;20203;-86
2021/06/04 03:12:22;;;;;;;5.70;3.13;;;;;;;19.38;49.57;96048.72;4995197;28;20203;-88
2021/06/04 03:14:51;;;;;;;3.67;3.22;;;;;;;19.32;50.62;96050.38;4995879;28;20215;-87
2021/06/04 03:17:20;;;;;;;3.50;3.20;;;;;;;19.30;50.28;96047.19;4995862;28;20219;-88
2021/06/04 03:19:46;;;;;;;3.40;3.10;;;;;;;19.35;49.57;96046.53;4995576;28;20203;-87
2021/06/04 03:22:15;;;;;;;6.57;3.28;;;;;;;19.40;49.58;96047.50;4995453;28;20207;-86
2021/06/04 03:24:44;;;;;;;4.20;3.17;;;;;;;19.31;49.95;96052.19;4996175;28;20671;-87
2021/06/04 03:27:11;;;;;;;4.55;3.45;;;;;;;19.28;50.09;96062.28;4996399;28;20226;-88
2021/06/04 03:29:37;;;;;;;4.40;3.20;;;;;;;19.31;50.14;96054.00;4999215;28;20194;-87
2021/06/04 03:32:07;;;;;;;4.38;3.30;;;;;;;19.33;50.43;96060.63;4998160;28;20239;-84
2021/06/04 03:34:35;;;;;;;6.60;3.53;;;;;;;19.39;50.00;96058.16;4998857;28;20861;-87
2021/06/04 03:37:02;;;;;;;9.57;4.35;;;;;;;19.36;50.31;96066.41;4999064;28;20251;-86
2021/06/04 03:39:31;;;;;;;5.60;3.75;;;;;;;19.25;50.97;96066.13;4997882;28;20224;-86
2021/06/04 03:41:58;;;;;;;5.20;3.75;;;;;;;19.22;51.06;96063.97;4997885;28;20566;-86
2021/06/04 03:44:26;;;;;;;6.47;3.65;;;;;;;19.07;52.11;96066.13;4996661;28;20204;-85
2021/06/04 03:46:52;;;;;;;4.70;3.35;;;;;;;19.04;51.92;96068.41;4996273;28;20219;-85
2021/06/04 03:49:21;;;;;;;3.92;3.55;;;;;;;19.02;51.50;96066.00;4996095;28;20211;-87
2021/06/04 03:51:52;;;;;;;4.15;3.22;;;;;;;18.96;52.33;96070.28;4996376;28;20703;-86
2021/06/04 03:54:21;;;;;;;6.30;3.30;;;;;;;18.99;52.31;96069.03;4995860;28;20479;-87
2021/06/04 03:56:48;;;;;;;5.10;3.58;;;;;;;19.02;52.26;96073.03;4996161;28;20226;-87
2021/06/04 03:59:15;;;;;;;3.80;3.47;;;;;;;19.03;52.17;96072.03;4995948;28;20224;-86
2021/06/04 04:01:44;;;;;;;3.97;3.67;;;;;;;19.01;52.69;96069.63;4996912;28;20214;-85
2021/06/04 04:04:10;;;;;;;3.80;3.50;;;;;;;18.94;52.48;96071.50;4996954;28;20569;-86
2021/06/04 04:06:36;;;;;;;5.78;3.85;;;;;;;19.00;52.44;96068.03;4995834;28;20595;-84
2021/06/04 04:09:06;;;;;;;5.53;3.78;;;;;;;19.08;52.28;96078.16;4995683;28;20234;-86
2021/06/04 04:11:32;;;;;;;4.20;3.75;;;;;;;19.08;52.76;96075.56;4995883;28;20213;-85
2021/06/04 04:13:58;;;;;;;5.90;3.70;;;;;;;19.02;52.73;96071.22;4994754;28;20196;-85
2021/06/04 04:16:25;;;;;;;4.18;3.78;;;;;;;19.06;53.20;96072.38;4994597;28;20223;-87
2021/06/04 04:18:51;;;;;;;5.53;3.67;;;;;;;19.13;52.97;96074.91;4995305;28;20230;-84
2021/06/04 04:21:17;;;;;;;4.15;3.63;;;;;;;19.07;53.83;96071.34;4994977;28;20202;-85
2021/06/04 04:23:46;;;;;;;5.07;3.80;;;;;;;19.12;52.76;96075.94;4995488;28;20290;-83
2021/06/04 04:26:17;;;;;;;6.38;3.80;;;;;;;19.12;53.81;96070.72;4995117;28;20228;-85
2021/06/04 04:28:46;;;;;;;3.90;3.47;;;;;;;19.14;53.38;96069.47;4994618;28;20191;-85
2021/06/04 04:31:16;;;;;;;3.95;3.35;;;;;;;19.15;53.94;96073.69;4992095;28;20204;-87
2021/06/04 04:33:42;;;;;;;4.70;3.15;;;;;;;19.27;53.32;96076.34;4991616;28;20238;-86
2021/06/04 04:36:11;;;;;;;4.38;3.30;;;;;;;19.40;53.30;96064.97;4992414;28;20219;-84
2021/06/04 04:38:37;;;;;;;3.95;3.38;;;;;;;19.43;53.29;96067.94;4991513;28;20286;-86
2021/06/04 04:41:04;;;;;;;4.82;3.38;;;;;;;19.62;54.07;96077.38;4991757;28;20198;-87
2021/06/04 04:43:34;;;;;;;4.28;3.33;;;;;;;19.76;53.56;96072.78;4992582;28;20211;-85
2021/06/04 04:46:02;;;;;;;4.63;3.90;;;;;;;19.77;53.21;96076.97;4992296;28;20314;-86
2021/06/04 04:48:28;;;;;;;4.18;3.63;;;;;;;19.93;52.83;96078.16;4992067;28;20199;-86
2021/06/04 04:50:55;;;;;;;3.92;3.58;;;;;;;19.98;53.07;96084.31;4990579;28;20757;-88
2021/06/04 04:53:22;;;;;;;3.45;3.20;;;;;;;19.88;53.46;96089.28;4990255;28;20292;-85
2021/06/04 04:55:48;;;;;;;4.57;3.67;;;;;;;19.69;53.38;96081.69;4994239;28;20219;-85
2021/06/04 04:58:18;;;;;;;6.10;3.45;;;;;;;19.58;53.03;96085.88;4997829;28;20227;-84
2021/06/04 05:00:45;;;;;;;5.00;3.60;;;;;;;19.54;53.35;96089.94;4992690;28;20203;-85
2021/06/04 05:03:13;;;;;;;4.47;3.97;;;;;;;19.48;53.34;96091.56;4994919;28;20206;-86
2021/06/04 05:05:40;;;;;;;4.10;3.70;;;;;;;19.43;52.93;96082.81;4994042;28;20274;-86
2021/06/04 05:08:07;;;;;;;3.85;3.45;;;;;;;19.37;53.68;96086.28;4993529;28;20191;-86
2021/06/04 05:10:34;;;;;;;3.78;3.40;;;;;;;19.38;53.73;96087.91;4995504;28;20195;-85
2021/06/04 05:13:01;;;;;;;6.05;3.70;;;;;;;19.41;53.09;96083.03;4995024;28;20203;-86
2021/06/04 05:15:30;;;;;;;4.57;4.18;;;;;;;19.49;52.70;96094.97;4994115;28;20196;-85
2021/06/04 05:17:58;;;;;;;4.60;3.88;;;;;;;19.51;52.73;96092.97;4995116;28;20247;-87
2021/06/04 05:20:25;;;;;;;4.18;3.40;;;;;;;19.57;52.63;96087.69;4995146;28;20208;-85
2021/06/04 05:22:52;;;;;;;4.72;3.88;;;;;;;19.55;53.27;96089.72;4995490;28;20195;-85
2021/06/04 05:25:21;;;;;;;7.70;3.90;;;;;;;19.62;53.70;96097.47;4996187;28;20314;-86
2021/06/04 05:27:47;;;;;;;5.38;3.97;;;;;;;19.66;53.08;96096.81;4995431;28;20286;-86
2021/06/04 05:30:17;;;;;;;4.07;3.70;;;;;;;19.73;52.92;96094.09;4994790;28;20204;-87
2021/06/04 05:32:43;;;;;;;5.13;3.97;;;;;;;19.74;53.78;96103.56;4995279;28;20341;-87
2021/06/04 05:35:11;;;;;;;4.50;3.83;;;;;;;19.76;54.29;96104.13;4995472;28;20203;-87
2021/06/04 05:37:38;;;;;;;11.18;4.15;;;;;;;19.82;53.89;96099.84;4995521;28;20219;-86
2021/06/04 05:40:05;;;;;;;4.80;4.30;;;;;;;19.94;53.71;96113.75;4994462;28;20204;-87
2021/06/04 05:42:31;;;;;;;4.32;3.60;;;;;;;20.06;53.34;96109.34;4994531;28;20216;-85
2021/06/04 05:44:57;;;;;;;4.43;3.70;;;;;;;20.16;54.04;96116.66;4995100;28;20227;-84
2021/06/04 05:47:23;;;;;;;5.43;3.70;;;;;;;20.23;53.32;96114.72;4995821;28;20259;-84
2021/06/04 05:49:50;;;;;;;5.38;4.10;;;;;;;20.31;53.41;96117.03;4995345;28;20199;-84
2021/06/04 05:52:18;;;;;;;4.40;4.10;;;;;;;20.39;53.50;96119.38;4993660;28;20203;-86
2021/06/04 05:54:47;;;;;;;3.80;3.50;;;;;;;20.45;53.34;96121.06;4994867;28;20208;-86
2021/06/04 05:57:14;;;;;;;4.28;3.80;;;;;;;20.51;53.74;96119.38;4995681;28;20234;-85
2021/06/04 05:59:40;;;;;;;4.15;3.75;;;;;;;20.57;53.45;96118.47;5005462;28;20227;-85
2021/06/04 06:02:08;;;;;;;3.58;3.38;;;;;;;20.65;52.96;96118.94;4994747;28;20210;-84
2021/06/04 06:04:34;;;;;;;6.47;3.30;;;;;;;20.68;53.63;96120.31;4994832;28;20715;-85
2021/06/04 06:07:00;;;;;;;5.28;3.63;;;;;;;20.69;54.58;96127.94;4995005;28;20278;-85
2021/06/04 06:09:29;;;;;;;3.80;3.50;;;;;;;20.72;54.13;96134.53;5008998;28;20689;-85
2021/06/04 06:11:55;;;;;;;3.70;3.40;;;;;;;20.61;55.59;96135.31;4991964;28;20309;-86
2021/06/04 06:14:21;;;;;;;3.80;3.50;;;;;;;20.66;54.12;96136.22;4996029;28;20230;-87
2021/06/04 06:16:47;;;;;;;4.75;3.50;;;;;;;20.72;54.40;96134.53;4995495;28;20216;-87
2021/06/04 06:19:16;;;;;;;6.55;3.53;;;;;;;20.84;54.01;96137.16;4995341;28;20220;-88
2021/06/04 06:21:46;;;;;;;6.22;3.60;;;;;;;20.93;53.46;96139.22;5010237;28;20209;-84
2021/06/04 06:24:12;;;;;;;4.53;3.65;;;;;;;21.02;53.14;96140.44;4988266;28;20271;-84
2021/06/04 06:26:40;;;;;;;4.43;3.75;;;;;;;21.08;53.18;96143.97;4995008;28;20290;-87
2021/06/04 06:29:08;;;;;;;5.35;3.80;;;;;;;21.19;53.35;96142.38;4992814;28;20207;-83
2021/06/04 06:31:38;;;;;;;5.85;3.97;;;;;;;21.24;53.03;96142.53;4993487;28;20615;-84
2021/06/04 06:34:08;;;;;;;5.38;3.72;;;;;;;21.23;53.05;96146.16;4994559;28;20601;-86
2021/06/04 06:36:40;;;;;;;6.75;3.70;;;;;;;21.26;53.34;96143.88;4994242;28;20702;-84
2021/06/04 06:39:11;;;;;;;4.63;3.58;;;;;;;21.33;53.32;96149.00;4994411;28;20261;-86
2021/06/04 06:41:40;;;;;;;3.92;3.42;;;;;;;21.40;53.61;96148.88;4993586;28;20195;-86
2021/06/04 06:44:07;;;;;;;5.13;3.60;;;;;;;21.54;53.31;96145.78;4994791;28;20207;-87
2021/06/04 06:46:34;;;;;;;5.75;3.35;;;;;;;21.70;52.82;96149.50;4995102;28;20218;-85
2021/06/04 06:49:00;;;;;;;5.20;3.40;;;;;;;21.79;53.73;96150.72;4994177;28;20222;-85
2021/06/04 06:51:32;;;;;;;4.68;3.67;;;;;;;21.92;53.32;96145.22;4995020;28;20203;-85
2021/06/04 06:53:59;;;;;;;4.30;3.35;;;;;;;22.09;52.82;96158.41;4995545;28;20583;-85
2021/06/04 06:56:26;;;;;;;3.90;3.60;;;;;;;22.21;52.82;96158.34;4990923;28;20226;-84
2021/06/04 06:58:54;;;;;;;4.07;3.70;;;;;;;22.28;52.95;96151.16;4994770;28;20223;-84
2021/06/04 07:01:20;;;;;;;6.18;3.70;;;;;;;22.30;52.75;96157.75;4995191;28;20222;-85
2021/06/04 07:03:46;;;;;;;3.92;3.63;;;;;;;22.37;52.25;96157.59;4991999;28;20195;-86
2021/06/04 07:06:15;;;;;;;6.40;3.47;;;;;;;22.48;52.04;96169.06;4997748;28;20245;-87
2021/06/04 07:08:41;;;;;;;7.53;3.97;;;;;;;22.48;51.80;96164.63;4997325;28;20578;-88
2021/06/04 07:11:07;;;;;;;5.25;3.50;;;;;;;22.52;51.72;96162.28;4996402;28;20758;-86
2021/06/04 07:13:34;;;;;;;5.60;4.03;;;;;;;22.60;52.03;96154.03;4996956;28;20192;-86
2021/06/04 07:16:07;;;;;;;4.13;3.65;;;;;;;22.79;52.08;96159.88;4997731;28;20235;-85
2021/06/04 07:18:35;;;;;;;7.72;4.25;;;;;;;22.85;51.91;96162.34;4999649;28;20293;-86
2021/06/04 07:21:02;;;;;;;4.78;3.70;;;;;;;22.92;51.48;96162.97;4999811;28;20210;-85
2021/06/04 07:23:31;;;;;;;4.97;3.83;;;;;;;23.06;51.15;96163.47;4999950;28;20548;-86
2021/06/04 07:26:00;;;;;;;5.70;3.85;;;;;;;23.20;51.47;96161.28;4997378;28;20251;-86
2021/06/04 07:28:31;;;;;;;4.75;3.80;;;;;;;23.20;51.39;96161.28;4995009;28;20196;-88
2021/06/04 07:30:59;;;;;;;5.47;3.72;;;;;;;23.29;50.95;96167.69;4998046;28;20200;-86
2021/06/04 07:33:29;;;;;;;10.98;9.95;;;;;;;23.42;51.21;96162.91;4996168;28;20234;-85
2021/06/04 07:35:59;;;;;;;11.48;9.55;;;;;;;23.40;51.80;96161.56;4993885;28;20273;-88
2021/06/04 07:38:25;;;;;;;8.07;7.35;;;;;;;23.54;51.66;96162.03;4998234;28;20230;-83
2021/06/04 07:40:52;;;;;;;8.57;4.50;;;;;;;23.59;51.71;96160.25;4998596;28;20578;-83
2021/06/04 07:43:21;;;;;;;5.72;3.83;;;;;;;23.59;51.43;96162.09;4997860;28;20222;-86
2021/06/04 07:45:48;;;;;;;4.82;3.60;;;;;;;23.65;50.83;96158.50;4994250;28;20238;-86
2021/06/04 07:48:18;;;;;;;4.13;3.70;;;;;;;23.79;50.47;96156.28;4995542;28;20203;-84
2021/06/04 07:50:53;;;;;;;5.68;3.78;;;;;;;23.95;50.22;96155.41;4998798;28;20843;-87
2021/06/04 07:53:26;;;;;;;5.03;4.22;;;;;;;24.03;49.33;96157.63;5005582;28;20237;-86
2021/06/04 07:56:15;;;;;;;4.53;3.75;;;;;;;24.04;50.15;96157.38;5004119;28;20207;-85
2021/06/04 07:58:41;;;;;;;3.97;3.67;;;;;;;24.17;50.03;96160.66;4981180;28;20212;-85
2021/06/04 08:01:08;;;;;;;6.63;5.40;;;;;;;24.27;50.22;96160.75;4995228;28;20249;-86
2021/06/04 08:03:36;;;;;;;6.45;5.53;;;;;;;24.34;49.84;96162.16;4994979;28;20191;-85
2021/06/04 08:06:05;;;;;;;6.57;3.78;;;;;;;24.22;49.58;96158.88;4992573;28;20238;-86
2021/06/04 08:08:33;;;;;;;4.30;3.95;;;;;;;24.30;49.40;96160.28;4992319;28;20200;-87
2021/06/04 08:11:00;;;;;;;6.20;3.60;;;;;;;24.36;49.91;96165.34;4993379;28;20233;-86
2021/06/04 08:13:26;;;;;;;4.50;3.65;;;;;;;24.36;49.33;96165.34;4999712;28;20213;-85
2021/06/04 08:15:57;;;;;;;4.55;4.15;;;;;;;24.43;49.17;96167.78;4992528;28;20219;-85
2021/06/04 08:18:25;;;;;;;5.30;4.03;;;;;;;24.45;49.49;96157.78;4995515;28;20326;-86
2021/06/04 08:20:52;;;;;;;4.63;4.20;;;;;;;24.37;50.43;96166.94;5005921;28;20230;-83
2021/06/04 08:23:27;;;;;;;5.13;4.10;;;;;;;24.49;50.22;96166.78;5004838;28;20207;-84
2021/06/04 08:26:05;;;;;;;4.10;3.80;;;;;;;24.64;49.92;96163.47;4995399;28;20218;-86
2021/06/04 08:28:31;;;;;;;4.90;3.70;;;;;;;24.78;49.95;96162.81;4993641;28;20199;-86
2021/06/04 08:30:58;;;;;;;4.32;4.00;;;;;;;24.88;49.41;96161.28;4993089;28;20276;-86
2021/06/04 08:33:28;;;;;;;5.20;4.25;;;;;;;24.94;48.88;96160.28;4993514;28;20306;-87
2021/06/04 08:35:56;;;;;;;5.10;3.70;;;;;;;25.01;48.95;96159.06;4991719;28;20735;-87
2021/06/04 08:38:28;;;;;;;4.55;4.15;;;;;;;24.98;48.98;96156.94;4992029;28;20251;-86
2021/06/04 08:40:55;;;;;;;6.93;3.88;;;;;;;25.04;49.58;96163.00;4990898;28;20207;-86
2021/06/04 08:43:38;;;;;;;4.25;3.88;;;;;;;25.23;49.35;96156.28;4992775;28;20204;-86
2021/06/04 08:46:08;;;;;;;4.97;3.97;;;;;;;25.35;49.34;96158.75;4992457;28;20218;-86
2021/06/04 08:48:43;;;;;;;5.55;4.50;;;;;;;25.46;49.31;96152.47;4992331;28;20206;-86
2021/06/04 08:51:18;;;;;;;4.57;4.18;;;;;;;25.55;49.86;96150.13;4992087;28;20195;-86
2021/06/04 08:54:02;;;;;;;5.75;5.15;;;;;;;25.65;49.48;96158.91;4992982;28;20199;-87
2021/06/04 08:56:33;;;;;;;5.57;5.18;;;;;;;25.74;48.81;96152.09;4991062;28;20211;-85
2021/06/04 08:59:04;;;;;;;4.35;4.05;;;;;;;25.78;49.01;96155.81;4991012;28;20394;-86
2021/06/04 09:01:42;;;;;;;6.25;4.22;;;;;;;25.93;48.07;96141.09;4992708;28;20302;-84
2021/06/04 09:04:28;;;;;;;6.15;4.50;;;;;;;26.07;46.80;96145.59;4991753;28;20734;-85
2021/06/04 09:07:01;;;;;;;4.75;4.35;;;;;;;26.16;47.67;96143.25;4991000;28;20219;-85
2021/06/04 09:09:35;;;;;;;4.90;4.47;;;;;;;26.38;47.94;96149.09;4993825;28;20203;-86
2021/06/04 09:12:06;;;;;;;4.43;4.03;;;;;;;26.22;47.22;96144.84;4993029;28;20213;-86
2021/06/04 09:14:33;;;;;;;5.90;5.32;;;;;;;26.20;46.42;96148.78;4992780;28;20215;-86
2021/06/04 09:17:11;;;;;;;5.85;5.25;;;;;;;26.22;46.22;96147.47;4990301;28;20234;-86
2021/06/04 09:19:55;;;;;;;7.20;4.57;;;;;;;26.28;46.13;96154.34;4989384;28;20222;-86
2021/06/04 09:22:38;;;;;;;6.22;4.68;;;;;;;26.37;45.95;96160.72;4990851;28;20253;-86
2021/06/04 09:25:09;;;;;;;4.93;4.50;;;;;;;26.34;45.17;96155.19;4990519;28;20203;-86
2021/06/04 09:27:37;;;;;;;4.55;4.15;;;;;;;26.21;45.25;96156.44;4991186;28;20230;-86
2021/06/04 09:30:19;;;;;;;4.75;4.18;;;;;;;26.46;45.67;96155.72;4990218;28;20199;-87
2021/06/04 09:33:01;;;;;;;4.85;4.30;;;;;;;26.41;45.38;96161.78;4990625;28;20230;-86
2021/06/04 09:35:29;;;;;;;4.88;4.57;;;;;;;26.40;44.80;96154.91;4990583;28;20188;-84
2021/06/04 09:38:11;;;;;;;6.47;5.47;;;;;;;26.50;44.31;96154.16;4991788;28;20211;-86
2021/06/04 09:40:40;;;;;;;5.93;4.28;;;;;;;26.49;44.40;96155.22;4991906;28;20501;-85
2021/06/04 09:43:15;;;;;;;5.03;4.50;;;;;;;26.45;45.13;96156.78;4984831;28;20206;-86
2021/06/04 09:45:52;;;;;;;4.82;4.35;;;;;;;26.48;45.40;96159.69;4992197;28;20285;-87
2021/06/04 09:48:32;;;;;;;4.72;4.32;;;;;;;26.56;46.78;96155.72;4990672;28;20218;-87
2021/06/04 09:51:07;;;;;;;4.72;4.35;;;;;;;26.57;46.50;96154.66;4991686;28;20621;-86
2021/06/04 09:53:33;;;;;;;4.75;4.38;;;;;;;26.55;45.09;96153.38;4991670;28;20199;-87
2021/06/04 09:56:18;;;;;;;4.25;3.92;;;;;;;26.42;44.32;96160.75;4992462;28;20234;-89
2021/06/04 09:58:52;;;;;;;4.25;3.92;;;;;;;26.50;44.06;96156.78;4991142;28;20222;-87
2021/06/04 10:01:20;;;;;;;7.47;4.15;;;;;;;26.60;44.74;96154.16;4992351;28;20199;-86
2021/06/04 10:04:07;;;;;;;4.10;3.80;;;;;;;26.72;44.15;96153.91;4992689;28;20663;-90
2021/06/04 10:06:37;;;;;;;5.68;3.97;;;;;;;26.76;43.93;96147.00;4992795;28;20218;-89
2021/06/04 10:09:19;;;;;;;4.22;3.92;;;;;;;26.74;44.31;96147.31;4992952;28;20192;-88
2021/06/04 10:11:54;;;;;;;4.43;4.13;;;;;;;26.91;44.88;96147.03;4992239;28;20294;-89
2021/06/04 10:14:28;;;;;;;5.53;4.25;;;;;;;27.01;44.06;96141.75;4992521;28;20230;-88
2021/06/04 10:17:04;;;;;;;5.45;3.92;;;;;;;27.10;44.65;96134.06;4991622;28;20244;-89
2021/06/04 10:19:35;;;;;;;4.53;4.13;;;;;;;27.11;44.62;96133.81;4993342;28;20234;-89
2021/06/04 10:22:25;;;;;;;7.00;4.30;;;;;;;27.18;44.32;96128.22;4991581;28;20200;-88
2021/06/04 10:24:54;;;;;;;4.10;3.65;;;;;;;27.36;43.43;96126.84;4993218;28;20200;-88
2021/06/04 10:27:37;;;;;;;4.28;3.88;;;;;;;27.37;41.66;96126.59;4993044;28;20285;-89
2021/06/04 10:30:08;;;;;;;3.65;3.38;;;;;;;27.33;41.54;96120.25;4992649;28;20199;-88
2021/06/04 10:32:40;;;;;;;3.88;3.50;;;;;;;27.33;41.72;96124.75;4991451;28;20227;-88
2021/06/04 10:35:15;;;;;;;4.10;3.80;;;;;;;27.37;41.52;96118.66;4992809;28;20210;-89
2021/06/04 10:37:49;;;;;;;4.25;3.85;;;;;;;27.57;41.61;96112.53;4984149;28;20220;-89
2021/06/04 10:40:21;;;;;;;6.32;4.00;;;;;;;27.54;42.11;96105.09;4991476;28;20232;-89
2021/06/04 10:43:05;;;;;;;3.72;3.42;;;;;;;27.68;42.39;96097.41;4989499;28;20200;-89
2021/06/04 10:45:35;;;;;;;5.43;3.95;;;;;;;28.00;41.58;96097.75;4991789;28;20211;-88
2021/06/04 10:48:41;;;;;;;4.40;3.90;;;;;;;28.15;40.78;96091.56;4992047;28;20290;-88
2021/06/04 10:51:19;;;;;;;4.40;3.90;;;;;;;28.32;43.31;96093.84;4991158;28;20218;-89
2021/06/04 10:53:55;;;;;;;3.83;3.45;;;;;;;28.39;41.69;96089.03;5005521;28;20198;-88
2021/06/04 10:56:33;;;;;;;4.07;3.72;;;;;;;28.43;40.34;96085.56;4992440;28;20218;-89
2021/06/04 10:59:11;;;;;;;4.25;3.90;;;;;;;28.62;40.40;96088.34;4991893;28;20208;-89
2021/06/04 11:01:54;;;;;;;4.57;3.60;;;;;;;28.77;40.99;96082.88;4991303;28;20666;-86
2021/06/04 11:04:34;;;;;;;4.18;3.63;;;;;;;28.85;39.54;96081.53;4992660;28;20206;-87
2021/06/04 11:07:06;;;;;;;4.15;3.75;;;;;;;28.81;38.99;96083.16;4991199;28;20318;-82
2021/06/04 11:10:16;;;;;;;8.13;6.18;;;;;;;29.00;38.67;96080.59;4970750;28;20700;-89
2021/06/04 11:13:36;;;;;;;4.75;4.35;;;;;;;29.22;39.05;96072.91;4907546;29;20209;-89
2021/06/04 11:17:09;;;;;;;4.30;4.00;;;;;;;29.34;37.92;96072.50;4993842;28;20229;-89
2021/06/04 11:19:49;;;;;;;3.80;3.50;;;;;;;29.33;37.48;96066.41;4894913;29;20222;-87
2021/06/04 11:23:02;;;;;;;5.38;3.88;;;;;;;29.40;38.65;96068.75;4963259;28;20203;-88
2021/06/04 11:28:43;;;;;;;4.15;3.72;;;;;;;29.44;38.16;96069.78;4958899;28;20203;-86
2021/06/04 11:31:24;;;;;;;4.20;3.90;;;;;;;29.39;37.38;96057.34;4990069;28;20235;-85
2021/06/04 11:34:00;;;;;;;4.78;3.95;;;;;;;29.36;37.11;96057.88;4983321;28;20257;-86
2021/06/04 11:36:31;;;;;;;5.40;3.70;;;;;;;29.50;37.51;96052.69;4991844;28;20917;-85
2021/06/04 11:39:00;;;;;;;4.30;3.90;;;;;;;29.67;38.61;96049.56;4992232;28;20266;-85
2021/06/04 11:41:45;;;;;;;4.90;4.22;;;;;;;29.75;37.37;96046.28;4990718;28;20200;-86
2021/06/04 11:44:20;;;;;;;6.88;4.05;;;;;;;29.85;37.31;96052.22;4991807;28;20242;-86
2021/06/04 11:47:37;;;;;;;4.30;4.00;;;;;;;29.76;36.59;96038.03;4991319;28;20218;-84
2021/06/04 11:50:29;;;;;;;6.60;4.30;;;;;;;29.71;36.63;96040.75;4993650;28;20195;-85
2021/06/04 11:53:28;;;;;;;6.68;4.00;;;;;;;29.87;38.36;96034.13;4990400;28;20235;-85
2021/06/04 11:55:54;;;;;;;4.63;4.20;;;;;;;30.04;38.69;96035.50;4993153;28;20222;-86
2021/06/04 11:58:45;;;;;;;4.20;3.90;;;;;;;30.17;36.94;96040.13;4990505;28;20241;-86